Hana — 2BCV4 — position and weather

sailwx.info

Track history (hours):
 
Tides and Currents Weather Stations Pressure Air Temp Water Temp Dewpoint Dewpoint Depression Visibility Wind Speed Wind Dir Waves Ship Positions

Hana

Last reported at 2016-Aug-27 08:10 UTC. Time now 2016-Aug-27 22:15 UTC.
Position N 40°40' E 006°52'.

Length 43 m; draft 2.7 m.

Type: Pleasure craft. MMSI: 235065022.

Date/timePositionNaut miles runAvg speedWind from/ knotsBaromVisibWave heightAir tempDewpointWater temp
2016-Aug-27 08:10N 40°40' E 006°52'1113.3
2016-Aug-27 07:23N 40°35' E 006°39'12612.8
2016-Aug-26 21:30N 39°43' E 004°09'2812.5
2016-Aug-26 19:15N 39°29' E 003°37'912.3
2016-Aug-26 18:30N 39°25' E 003°26'1212.5
2016-Aug-26 17:33N 39°19' E 003°13'1211.6
2016-Aug-26 16:33N 39°16' E 002°59'1312.6
2016-Aug-26 15:33N 39°23' E 002°45'1211.7
2016-Aug-26 14:33N 39°33' E 002°38'0 0.3
2016-Aug-26 13:33N 39°33' E 002°38'0 0.0
2016-Aug-26 12:33N 39°33' E 002°38'0 0.0
2016-Aug-26 11:33N 39°33' E 002°38'0 0.0
2016-Aug-26 10:33N 39°33' E 002°38'0 0.0
2016-Aug-26 07:06N 39°33' E 002°38'0 0.0
2016-Aug-26 06:33N 39°33' E 002°38'0 0.0
2016-Aug-26 04:33N 39°33' E 002°38'0 0.0
2016-Aug-26 03:33N 39°33' E 002°38'0 0.0
2016-Aug-26 02:33N 39°33' E 002°38'0 0.0
2016-Aug-26 01:33N 39°33' E 002°38'0 0.0
2016-Aug-26 00:33N 39°33' E 002°38'0 0.0
2016-Aug-25 23:33N 39°33' E 002°38'0 0.0
2016-Aug-25 22:33N 39°33' E 002°38'0 0.0
2016-Aug-25 21:33N 39°33' E 002°38'0 0.0
2016-Aug-25 20:33N 39°33' E 002°38'0 0.0
2016-Aug-25 19:33N 39°33' E 002°38'0 0.0
2016-Aug-25 18:33N 39°33' E 002°38'5 4.6
2016-Aug-25 17:33N 39°29' E 002°35'8 8.1
2016-Aug-25 16:33N 39°32' E 002°25'0 0.0
2016-Aug-25 08:32N 39°32' E 002°25'5 0.4
2016-Aug-24 19:22N 39°37' E 002°22'1011.6
2016-Aug-24 18:30N 39°43' E 002°32'1 0.1
2016-Aug-24 06:32N 39°43' E 002°33'19 9.8
2016-Aug-24 04:33N 39°30' E 002°16'1010.4
2016-Aug-24 03:33N 39°22' E 002°06'1010.5
2016-Aug-24 02:34N 39°14' E 001°57'1010.3
2016-Aug-24 01:33N 39°07' E 001°48'1110.4
2016-Aug-24 00:30N 38°59' E 001°38'1010.2
2016-Aug-23 23:33N 38°52' E 001°30'8 0.6
2016-Aug-23 09:27N 38°51' E 001°19'  
2016-Aug-20 18:14N 38°54' E 001°27'6 9.1
2016-Aug-20 17:33N 38°58' E 001°33'1 0.6
2016-Aug-20 15:21N 38°59' E 001°34'0 0.0
2016-Aug-20 13:27N 38°59' E 001°34'0 0.0
2016-Aug-20 09:27N 38°59' E 001°34'6 6.4
2016-Aug-20 08:32N 38°55' E 001°30'2 0.2
2016-Aug-19 18:16N 38°54' E 001°27'710.1
2016-Aug-19 17:33N 38°47' E 001°26'0 0.0
2016-Aug-19 15:21N 38°47' E 001°26'0 0.0
2016-Aug-19 12:31N 38°47' E 001°26'  
Track history (hours):
 
Tides and Currents Weather Stations Pressure Air Temp Water Temp Dewpoint Dewpoint Depression Visibility Wind Speed Wind Dir Waves Ship Positions

Hana

Last reported at 2016-Aug-27 08:10 UTC. Time now 2016-Aug-27 22:15 UTC.
Position N 40°40' E 006°52'.

Length 43 m; draft 2.7 m.

Type: Pleasure craft. MMSI: 235065022.

Date/timePositionNaut miles runAvg speedWind from/ knotsBaromVisibWave heightAir tempDewpointWater temp
2016-Aug-27 08:10N 40°40' E 006°52'1113.3
2016-Aug-27 07:23N 40°35' E 006°39'12612.8
2016-Aug-26 21:30N 39°43' E 004°09'2812.5
2016-Aug-26 19:15N 39°29' E 003°37'912.3
2016-Aug-26 18:30N 39°25' E 003°26'1212.5
2016-Aug-26 17:33N 39°19' E 003°13'1211.6
2016-Aug-26 16:33N 39°16' E 002°59'1312.6
2016-Aug-26 15:33N 39°23' E 002°45'1211.7
2016-Aug-26 14:33N 39°33' E 002°38'0 0.3
2016-Aug-26 13:33N 39°33' E 002°38'0 0.0
2016-Aug-26 12:33N 39°33' E 002°38'0 0.0
2016-Aug-26 11:33N 39°33' E 002°38'0 0.0
2016-Aug-26 10:33N 39°33' E 002°38'0 0.0
2016-Aug-26 07:06N 39°33' E 002°38'0 0.0
2016-Aug-26 06:33N 39°33' E 002°38'0 0.0
2016-Aug-26 04:33N 39°33' E 002°38'0 0.0
2016-Aug-26 03:33N 39°33' E 002°38'0 0.0
2016-Aug-26 02:33N 39°33' E 002°38'0 0.0
2016-Aug-26 01:33N 39°33' E 002°38'0 0.0
2016-Aug-26 00:33N 39°33' E 002°38'0 0.0
2016-Aug-25 23:33N 39°33' E 002°38'0 0.0
2016-Aug-25 22:33N 39°33' E 002°38'0 0.0
2016-Aug-25 21:33N 39°33' E 002°38'0 0.0
2016-Aug-25 20:33N 39°33' E 002°38'0 0.0
2016-Aug-25 19:33N 39°33' E 002°38'0 0.0
2016-Aug-25 18:33N 39°33' E 002°38'5 4.6
2016-Aug-25 17:33N 39°29' E 002°35'8 8.1
2016-Aug-25 16:33N 39°32' E 002°25'0 0.0
2016-Aug-25 08:32N 39°32' E 002°25'5 0.4
2016-Aug-24 19:22N 39°37' E 002°22'1011.6
2016-Aug-24 18:30N 39°43' E 002°32'1 0.1
2016-Aug-24 06:32N 39°43' E 002°33'19 9.8
2016-Aug-24 04:33N 39°30' E 002°16'1010.4
2016-Aug-24 03:33N 39°22' E 002°06'1010.5
2016-Aug-24 02:34N 39°14' E 001°57'1010.3
2016-Aug-24 01:33N 39°07' E 001°48'1110.4
2016-Aug-24 00:30N 38°59' E 001°38'1010.2
2016-Aug-23 23:33N 38°52' E 001°30'8 0.6
2016-Aug-23 09:27N 38°51' E 001°19'  
2016-Aug-20 18:14N 38°54' E 001°27'6 9.1
2016-Aug-20 17:33N 38°58' E 001°33'1 0.6
2016-Aug-20 15:21N 38°59' E 001°34'0 0.0
2016-Aug-20 13:27N 38°59' E 001°34'0 0.0
2016-Aug-20 09:27N 38°59' E 001°34'6 6.4
2016-Aug-20 08:32N 38°55' E 001°30'2 0.2
2016-Aug-19 18:16N 38°54' E 001°27'710.1
2016-Aug-19 17:33N 38°47' E 001°26'0 0.0
2016-Aug-19 15:21N 38°47' E 001°26'0 0.0
2016-Aug-19 12:31N 38°47' E 001°26'  

Dump ship's entire track history